Terminal Aerodrome Forecast
Issued by NWS Sterling, VA

Home | Current Version | Previous Version | Text Only | Print | Product List | Glossary On
Versions: 1 2 3 4 5 6 7 8 9 10 11 12 13 14 15 16 17 18 19 20 21 22 23 24
000
FTUS41 KLWX 202300
TAFDCA
TAF
KDCA 202339Z 2100/2124 16007KT P6SM BKN050
     FM210800 00000KT P6SM SCT015 BKN050
     FM211100 00000KT P6SM FEW015 SCT050
     FM211500 32004KT P6SM BKN050
     FM212100 26006KT P6SM BKN050=

USA.gov is the U.S. government's official web portal to all federal, state and local government web resources and services.